createdAt,value
2019-02-18T00:01:20.255Z,70.60
2019-02-18T00:03:54.004Z,70.90
2019-02-18T00:06:27.428Z,70.90
2019-02-18T00:09:00.876Z,71.20
2019-02-18T00:11:34.309Z,71.40
2019-02-18T00:14:07.762Z,71.60
2019-02-18T00:16:41.184Z,71.90
2019-02-18T00:19:14.636Z,71.90
2019-02-18T00:21:48.142Z,71.90
2019-02-18T00:24:21.784Z,71.90
2019-02-18T00:26:55.209Z,71.80
2019-02-18T00:29:28.667Z,71.60
2019-02-18T00:32:02.081Z,71.60
2019-02-18T00:34:35.522Z,71.50
2019-02-18T00:37:09.355Z,71.30
2019-02-18T00:39:42.793Z,71.30
2019-02-18T00:42:16.230Z,71.30
2019-02-18T00:44:49.670Z,71.20
2019-02-18T00:47:23.105Z,71.40
2019-02-18T00:49:56.541Z,71.50
2019-02-18T00:52:29.989Z,71.40
2019-02-18T00:55:03.919Z,71.40
2019-02-18T00:57:37.344Z,71.60
2019-02-18T01:00:16.281Z,71.60
2019-02-18T01:02:49.715Z,71.50
2019-02-18T01:05:23.159Z,71.40
2019-02-18T01:07:56.756Z,71.40
2019-02-18T01:10:30.201Z,71.50
2019-02-18T01:13:03.641Z,71.60
2019-02-18T01:15:37.087Z,71.60
2019-02-18T01:18:10.513Z,71.50
2019-02-18T01:20:44.023Z,71.40
2019-02-18T01:23:17.454Z,71.50
2019-02-18T01:25:50.906Z,71.60
2019-02-18T01:28:24.330Z,71.60
2019-02-18T01:30:58.057Z,71.50
2019-02-18T01:33:31.481Z,71.50
2019-02-18T01:36:05.192Z,71.20
2019-02-18T01:38:39.541Z,71.80
2019-02-18T01:41:12.976Z,71.50
2019-02-18T01:43:46.410Z,71.40
2019-02-18T01:46:19.853Z,71.20
2019-02-18T01:48:53.285Z,71.30
2019-02-18T01:51:26.735Z,71.50
2019-02-18T01:54:00.163Z,71.20
2019-02-18T01:56:33.596Z,70.90
2019-02-18T01:59:07.029Z,70.80
2019-02-18T02:01:40.473Z,71.10
2019-02-18T02:04:13.910Z,71.10
2019-02-18T02:06:47.349Z,71.10
2019-02-18T02:09:20.777Z,71.30
2019-02-18T02:11:54.285Z,71.10
2019-02-18T02:14:27.714Z,71.30
2019-02-18T02:17:01.178Z,71.30
2019-02-18T02:19:34.609Z,71.40
2019-02-18T02:22:08.049Z,71.70
2019-02-18T02:24:41.477Z,72.30
2019-02-18T02:27:14.929Z,72.30
2019-02-18T02:29:48.347Z,72.00
2019-02-18T02:32:21.782Z,72.10
2019-02-18T02:34:55.225Z,72.10
2019-02-18T02:37:28.679Z,72.30
2019-02-18T02:40:02.108Z,72.70
2019-02-18T02:42:35.558Z,72.70
2019-02-18T02:45:09.433Z,73.00
2019-02-18T02:47:42.876Z,73.10
2019-02-18T02:50:16.306Z,73.20
2019-02-18T02:52:49.768Z,73.60
2019-02-18T02:55:23.199Z,73.70
2019-02-18T02:57:56.654Z,73.90
2019-02-18T03:00:30.094Z,74.20
2019-02-18T03:03:03.615Z,74.20
2019-02-18T03:05:37.105Z,74.50
2019-02-18T03:08:19.982Z,74.80
2019-02-18T03:10:45.701Z,74.90
2019-02-18T03:13:19.139Z,74.90
2019-02-18T03:15:52.577Z,75.30
2019-02-18T03:18:26.025Z,75.30
2019-02-18T03:20:59.444Z,75.20
2019-02-18T03:23:33.361Z,75.30
2019-02-18T03:26:06.786Z,75.70
2019-02-18T03:28:43.300Z,75.70
2019-02-18T03:31:19.805Z,75.90
2019-02-18T03:33:58.987Z,75.80
2019-02-18T03:36:32.412Z,75.80
2019-02-18T03:39:06.738Z,75.80
2019-02-18T03:41:40.975Z,75.70
2019-02-18T03:44:14.798Z,76.00
2019-02-18T03:46:50.618Z,75.90
2019-02-18T03:49:23.399Z,75.80
2019-02-18T03:51:56.827Z,75.00
2019-02-18T03:54:30.288Z,75.40
2019-02-18T03:57:03.762Z,75.40
2019-02-18T03:59:37.204Z,75.40
2019-02-18T04:02:10.642Z,75.70
2019-02-18T04:04:44.151Z,75.80
2019-02-18T04:07:17.573Z,75.70
2019-02-18T04:09:51.028Z,75.30
2019-02-18T04:12:24.461Z,75.20
2019-02-18T04:14:57.913Z,74.80
2019-02-18T04:17:31.350Z,75.40
2019-02-18T04:20:06.325Z,75.40
2019-02-18T04:22:39.753Z,75.80
2019-02-18T04:25:13.194Z,76.00
2019-02-18T04:27:46.632Z,76.10
2019-02-18T04:30:20.062Z,76.20
2019-02-18T04:32:53.492Z,76.20
2019-02-18T04:35:26.940Z,76.00
2019-02-18T04:38:00.370Z,76.00
2019-02-18T04:40:33.807Z,75.80
2019-02-18T04:43:07.231Z,75.80
2019-02-18T04:45:40.674Z,75.80
2019-02-18T04:48:14.101Z,76.10
2019-02-18T04:50:47.537Z,76.10
2019-02-18T04:53:20.965Z,76.00
2019-02-18T04:55:54.412Z,76.00
2019-02-18T04:58:27.835Z,75.90
2019-02-18T05:01:02.934Z,75.90
2019-02-18T05:03:36.432Z,76.10
2019-02-18T05:06:09.875Z,76.60
2019-02-18T05:08:43.297Z,76.00
2019-02-18T05:11:16.743Z,76.00
2019-02-18T05:13:50.162Z,76.00
2019-02-18T05:16:23.597Z,75.70
2019-02-18T05:18:57.016Z,76.00
2019-02-18T05:21:31.998Z,75.80
2019-02-18T05:24:05.449Z,75.90
2019-02-18T05:26:38.942Z,76.00
2019-02-18T05:29:12.375Z,76.00
2019-02-18T05:31:45.822Z,75.20
2019-02-18T05:34:19.244Z,75.40
2019-02-18T05:36:52.748Z,75.40
2019-02-18T05:39:26.181Z,75.60
2019-02-18T05:41:59.631Z,75.70
2019-02-18T05:44:33.056Z,75.70
2019-02-18T05:47:06.496Z,75.70
2019-02-18T05:49:39.921Z,75.50
2019-02-18T05:52:13.377Z,75.20
2019-02-18T05:54:46.812Z,75.30
2019-02-18T05:57:22.784Z,75.10
2019-02-18T05:59:55.400Z,75.70
2019-02-18T06:02:28.848Z,75.40
2019-02-18T06:05:04.281Z,75.40
2019-02-18T06:07:37.721Z,75.40
2019-02-18T06:10:11.173Z,75.40
2019-02-18T06:12:44.678Z,75.50
2019-02-18T06:15:18.301Z,75.60
2019-02-18T06:17:51.738Z,75.60
2019-02-18T06:20:25.176Z,75.30
2019-02-18T06:22:58.613Z,75.00
2019-02-18T06:25:32.048Z,74.90
2019-02-18T06:28:05.491Z,75.20
2019-02-18T06:30:38.908Z,75.50
2019-02-18T06:33:12.361Z,75.30
2019-02-18T06:35:45.797Z,75.30
2019-02-18T06:38:19.269Z,75.10
2019-02-18T06:40:52.696Z,75.10
2019-02-18T06:43:26.205Z,74.80
2019-02-18T06:46:17.295Z,74.90
2019-02-18T06:48:52.375Z,74.50
2019-02-18T06:51:45.146Z,74.70
2019-02-18T06:54:18.589Z,74.00
2019-02-18T06:56:56.357Z,74.70
2019-02-18T06:59:31.456Z,74.80
2019-02-18T07:02:09.501Z,74.90
2019-02-18T07:04:47.213Z,74.90
2019-02-18T07:07:25.322Z,75.20
2019-02-18T07:10:03.550Z,75.60
2019-02-18T07:12:38.615Z,75.00
2019-02-18T07:15:12.115Z,74.60
2019-02-18T07:17:45.541Z,74.60
2019-02-18T07:20:19.052Z,74.60
2019-02-18T07:22:52.523Z,74.60
2019-02-18T07:25:25.981Z,74.50
2019-02-18T07:27:59.409Z,74.60
2019-02-18T07:30:32.853Z,74.60
2019-02-18T07:33:06.277Z,74.80
2019-02-18T07:35:39.721Z,74.80
2019-02-18T07:38:13.151Z,74.90
2019-02-18T07:40:46.611Z,75.40
2019-02-18T07:43:20.042Z,74.60
2019-02-18T07:45:53.481Z,74.40
2019-02-18T07:48:26.900Z,74.20
2019-02-18T07:51:00.397Z,74.00
2019-02-18T07:53:33.831Z,73.50
2019-02-18T07:56:07.293Z,73.80
2019-02-18T07:58:40.723Z,74.00
2019-02-18T08:01:14.163Z,74.00
2019-02-18T08:03:47.589Z,73.70
2019-02-18T08:06:21.044Z,73.80
2019-02-18T08:08:54.467Z,73.30
2019-02-18T08:11:27.911Z,73.50
2019-02-18T08:14:01.409Z,73.50
2019-02-18T08:16:34.912Z,73.20
2019-02-18T08:19:08.346Z,73.70
2019-02-18T08:21:41.790Z,73.40
2019-02-18T08:24:15.232Z,73.50
2019-02-18T08:26:48.670Z,73.50
2019-02-18T08:29:22.096Z,73.70
2019-02-18T08:31:55.537Z,73.60
2019-02-18T08:34:28.958Z,73.60
2019-02-18T08:37:02.401Z,73.70
2019-02-18T08:39:35.829Z,73.70
2019-02-18T08:42:09.259Z,73.60
2019-02-18T08:44:42.691Z,73.60
2019-02-18T08:47:16.124Z,73.60
2019-02-18T08:49:49.552Z,73.20
2019-02-18T08:52:23.012Z,73.70
2019-02-18T08:54:56.983Z,73.40
2019-02-18T08:57:30.663Z,72.70
2019-02-18T09:00:06.998Z,73.00
2019-02-18T09:02:40.424Z,72.90
2019-02-18T09:05:13.982Z,72.90
2019-02-18T09:07:47.475Z,72.80
2019-02-18T09:10:20.911Z,72.60
2019-02-18T09:12:54.352Z,72.40
2019-02-18T09:15:27.777Z,72.40
2019-02-18T09:18:01.214Z,72.60
2019-02-18T09:20:34.647Z,72.50
2019-02-18T09:23:15.530Z,72.10
2019-02-18T09:25:50.589Z,72.00
2019-02-18T09:28:24.029Z,72.40
2019-02-18T09:30:57.513Z,72.50
2019-02-18T09:33:30.960Z,72.50
2019-02-18T09:36:04.465Z,72.40
2019-02-18T09:38:37.911Z,72.50
2019-02-18T09:41:11.346Z,72.70
2019-02-18T09:43:44.772Z,72.80
2019-02-18T09:46:18.191Z,72.60
2019-02-18T09:48:51.641Z,72.60
2019-02-18T09:51:25.065Z,72.70
2019-02-18T09:53:58.579Z,72.70
2019-02-18T09:56:32.080Z,72.80
2019-02-18T09:59:05.516Z,72.90
2019-02-18T10:01:38.938Z,72.30
2019-02-18T10:04:12.374Z,72.70
2019-02-18T10:06:45.796Z,72.30
2019-02-18T10:09:19.252Z,72.90
2019-02-18T10:11:52.732Z,72.60
2019-02-18T10:14:26.181Z,73.00
2019-02-18T10:16:59.607Z,73.10
2019-02-18T10:19:33.060Z,72.80
2019-02-18T10:22:06.493Z,72.60
2019-02-18T10:24:50.247Z,72.30
2019-02-18T10:27:15.068Z,72.40
2019-02-18T10:29:48.512Z,72.00
2019-02-18T10:32:21.937Z,72.80
2019-02-18T10:34:55.376Z,72.50
2019-02-18T10:37:28.865Z,72.30
2019-02-18T10:40:02.563Z,72.60
2019-02-18T10:42:35.994Z,72.70
2019-02-18T10:45:13.560Z,72.90
2019-02-18T10:47:46.974Z,72.60
2019-02-18T10:50:20.412Z,72.60
2019-02-18T10:52:53.840Z,72.80
2019-02-18T10:55:27.663Z,72.80
2019-02-18T10:58:01.084Z,72.90
2019-02-18T11:00:34.595Z,73.20
2019-02-18T11:03:08.018Z,73.30
2019-02-18T11:05:42.029Z,73.30
2019-02-18T11:08:15.460Z,73.00
2019-02-18T11:10:48.899Z,73.30
2019-02-18T11:13:22.394Z,73.30
2019-02-18T11:15:55.912Z,73.00
2019-02-18T11:18:29.340Z,73.00
2019-02-18T11:21:02.783Z,72.90
2019-02-18T11:23:36.202Z,72.90
2019-02-18T11:26:09.642Z,72.60
2019-02-18T11:28:43.071Z,72.80
2019-02-18T11:31:16.517Z,72.60
2019-02-18T11:33:50.408Z,72.40
2019-02-18T11:36:23.925Z,72.10
2019-02-18T11:38:57.345Z,71.80
2019-02-18T11:41:30.781Z,71.60
2019-02-18T11:44:04.783Z,71.50
2019-02-18T11:46:38.221Z,71.30
2019-02-18T11:49:11.640Z,71.20
2019-02-18T11:51:45.084Z,71.50
2019-02-18T11:54:18.513Z,70.20
2019-02-18T11:56:51.959Z,70.00
2019-02-18T11:59:25.394Z,69.70
2019-02-18T12:01:58.847Z,69.50
2019-02-18T12:04:32.344Z,69.30
2019-02-18T12:07:05.800Z,68.70
2019-02-18T12:09:39.309Z,68.50
2019-02-18T12:12:13.026Z,68.30
2019-02-18T12:14:46.450Z,67.10
2019-02-18T12:17:20.984Z,67.00
2019-02-18T12:19:55.211Z,66.50
2019-02-18T12:22:29.958Z,66.10
2019-02-18T12:25:03.459Z,65.60
2019-02-18T12:27:36.978Z,65.40
2019-02-18T12:30:17.807Z,65.00
2019-02-18T12:32:51.388Z,64.50
2019-02-18T12:35:31.102Z,62.80
2019-02-18T12:38:00.059Z,62.40
2019-02-18T12:40:33.492Z,61.90
2019-02-18T12:43:07.009Z,61.50
2019-02-18T12:45:40.449Z,61.10
2019-02-18T12:48:13.893Z,60.70
2019-02-18T12:50:47.329Z,60.30
2019-02-18T12:53:20.859Z,60.00
2019-02-18T12:55:54.429Z,59.70
2019-02-18T12:58:27.952Z,59.50
2019-02-18T13:01:01.387Z,59.00
2019-02-18T13:03:34.913Z,58.30
2019-02-18T13:06:08.421Z,57.90
2019-02-18T13:08:41.874Z,57.80
2019-02-18T13:11:15.376Z,56.90
2019-02-18T13:13:48.902Z,56.30
2019-02-18T13:16:22.409Z,55.90
2019-02-18T13:18:55.933Z,55.50
2019-02-18T13:21:29.437Z,54.90
2019-02-18T13:24:03.038Z,54.40
2019-02-18T13:26:36.540Z,53.90
2019-02-18T13:29:09.991Z,53.60
2019-02-18T13:31:43.501Z,53.00
2019-02-18T13:34:16.954Z,52.60
2019-02-18T13:36:50.382Z,52.20
2019-02-18T13:39:24.201Z,51.90
2019-02-18T13:41:57.633Z,51.70
2019-02-18T13:44:31.096Z,51.30
2019-02-18T13:47:04.909Z,51.00
2019-02-18T13:49:38.353Z,50.80
2019-02-18T13:52:11.939Z,50.70
2019-02-18T13:54:45.384Z,50.50
2019-02-18T13:57:18.816Z,50.20
2019-02-18T13:59:52.260Z,49.80
2019-02-18T14:02:25.770Z,49.70
2019-02-18T14:04:59.214Z,49.40
2019-02-18T14:07:32.788Z,48.90
2019-02-18T14:10:07.379Z,48.70
2019-02-18T14:12:41.425Z,48.40
2019-02-18T14:15:15.778Z,48.00
2019-02-18T14:17:50.577Z,47.70
2019-02-18T14:20:24.337Z,47.20
2019-02-18T14:22:58.142Z,46.90
2019-02-18T14:25:31.714Z,46.60
2019-02-18T14:28:05.273Z,46.40
2019-02-18T14:30:38.728Z,46.00
2019-02-18T14:33:12.176Z,45.70
2019-02-18T14:35:45.689Z,45.30
2019-02-18T14:38:19.184Z,45.80
2019-02-18T14:40:52.753Z,45.10
2019-02-18T14:43:26.232Z,45.00
2019-02-18T14:45:59.953Z,44.70
2019-02-18T14:48:33.420Z,44.30
2019-02-18T14:51:06.932Z,44.00
2019-02-18T14:53:40.352Z,43.70
2019-02-18T14:56:15.458Z,43.30
2019-02-18T14:58:48.957Z,42.60
2019-02-18T15:01:22.422Z,41.90
2019-02-18T15:03:55.916Z,41.00
2019-02-18T15:06:29.379Z,40.30
2019-02-18T15:09:03.276Z,40.40
2019-02-18T15:11:36.730Z,40.40
2019-02-18T15:14:10.220Z,39.90
2019-02-18T15:16:43.765Z,39.10
2019-02-18T15:19:17.673Z,38.80
2019-02-18T15:21:51.129Z,38.50
2019-02-18T15:24:24.640Z,38.50
2019-02-18T15:26:58.152Z,38.50
2019-02-18T15:29:31.589Z,38.60
2019-02-18T15:32:05.163Z,39.20
2019-02-18T15:34:38.669Z,39.60
2019-02-18T15:37:12.570Z,40.00
2019-02-18T15:39:46.005Z,40.30
2019-02-18T15:42:19.445Z,40.80
2019-02-18T15:44:52.949Z,41.40
2019-02-18T15:47:28.017Z,41.90
2019-02-18T15:50:01.446Z,42.50
2019-02-18T15:52:35.484Z,43.10
2019-02-18T15:55:10.154Z,43.60
2019-02-18T15:57:43.675Z,44.20
2019-02-18T16:00:25.737Z,44.80
2019-02-18T16:02:59.184Z,45.30
2019-02-18T16:05:32.688Z,45.80
2019-02-18T16:08:06.138Z,46.50
2019-02-18T16:10:39.570Z,46.70
2019-02-18T16:13:13.615Z,47.30
2019-02-18T16:15:47.126Z,47.80
2019-02-18T16:18:20.577Z,48.30
2019-02-18T16:20:54.013Z,48.80
2019-02-18T16:23:27.456Z,49.20
2019-02-18T16:26:00.892Z,49.60
2019-02-18T16:28:34.409Z,50.00
2019-02-18T16:31:07.842Z,50.30
2019-02-18T16:33:41.365Z,50.60
2019-02-18T16:36:14.809Z,50.90
2019-02-18T16:38:48.318Z,51.20
2019-02-18T16:41:21.827Z,51.60
2019-02-18T16:43:55.371Z,51.80
2019-02-18T16:46:29.389Z,52.10
2019-02-18T16:49:03.342Z,52.30
2019-02-18T16:51:36.849Z,52.90
2019-02-18T16:54:10.340Z,52.80
2019-02-18T16:56:43.800Z,53.00
2019-02-18T16:59:17.256Z,53.20
2019-02-18T17:01:53.653Z,53.30
2019-02-18T17:04:27.382Z,53.60
2019-02-18T17:07:01.192Z,53.90
2019-02-18T17:09:34.737Z,54.20
2019-02-18T17:12:08.173Z,54.30
2019-02-18T17:14:41.880Z,54.60
2019-02-18T17:17:15.613Z,54.80
2019-02-18T17:19:49.596Z,55.00
2019-02-18T17:22:23.030Z,55.20
2019-02-18T17:24:56.569Z,56.20
2019-02-18T17:27:30.053Z,56.50
2019-02-18T17:30:03.897Z,56.70
2019-02-18T17:32:37.327Z,56.80
2019-02-18T17:35:15.051Z,56.90
2019-02-18T17:37:48.561Z,57.10
2019-02-18T17:40:22.021Z,57.20
2019-02-18T17:42:55.722Z,57.30
2019-02-18T17:45:29.516Z,57.60
2019-02-18T17:48:02.977Z,57.80
2019-02-18T17:50:36.494Z,57.90
2019-02-18T17:53:10.312Z,58.20
2019-02-18T17:55:43.771Z,58.30
2019-02-18T17:58:17.321Z,58.40
2019-02-18T18:00:52.452Z,58.70
2019-02-18T18:03:25.966Z,58.80
2019-02-18T18:05:59.410Z,58.90
2019-02-18T18:08:32.913Z,59.20
2019-02-18T18:11:06.458Z,59.90
2019-02-18T18:13:39.986Z,59.50
2019-02-18T18:16:13.420Z,59.70
2019-02-18T18:18:46.860Z,59.90
2019-02-18T18:21:20.302Z,60.00
2019-02-18T18:23:53.727Z,60.40
2019-02-18T18:26:27.813Z,60.60
2019-02-18T18:29:01.263Z,60.80
2019-02-18T18:31:34.710Z,61.00
2019-02-18T18:34:08.157Z,61.00
2019-02-18T18:36:41.671Z,61.40
2019-02-18T18:39:15.107Z,61.40
2019-02-18T18:41:48.637Z,61.50
2019-02-18T18:44:22.069Z,61.80
2019-02-18T18:46:55.523Z,61.90
2019-02-18T18:49:28.949Z,62.10
2019-02-18T18:52:02.400Z,62.30
2019-02-18T18:54:35.834Z,62.50
2019-02-18T18:57:09.297Z,62.60
2019-02-18T18:59:43.410Z,62.70
2019-02-18T19:02:16.857Z,62.90
2019-02-18T19:04:50.297Z,62.90
2019-02-18T19:07:23.752Z,62.90
2019-02-18T19:09:57.765Z,63.00
2019-02-18T19:12:31.270Z,63.40
2019-02-18T19:15:07.125Z,63.40
2019-02-18T19:17:40.575Z,63.00
2019-02-18T19:20:14.304Z,63.70
2019-02-18T19:22:47.765Z,63.80
2019-02-18T19:25:21.193Z,63.90
2019-02-18T19:27:54.650Z,63.90
2019-02-18T19:30:30.799Z,64.10
2019-02-18T19:33:04.237Z,64.10
2019-02-18T19:35:37.665Z,64.30
2019-02-18T19:38:11.129Z,64.50
2019-02-18T19:40:44.626Z,64.80
2019-02-18T19:43:18.056Z,65.00
2019-02-18T19:45:51.497Z,65.20
2019-02-18T19:48:24.943Z,65.40
2019-02-18T19:50:58.369Z,65.50
2019-02-18T19:53:32.406Z,65.60
2019-02-18T19:56:05.829Z,65.80
2019-02-18T19:58:39.270Z,65.70
2019-02-18T20:01:12.697Z,65.90
2019-02-18T20:03:46.538Z,66.00
2019-02-18T20:06:19.969Z,66.00
2019-02-18T20:08:53.421Z,66.00
2019-02-18T20:11:26.862Z,66.20
2019-02-18T20:14:00.390Z,66.20
2019-02-18T20:16:33.815Z,66.40
2019-02-18T20:19:07.272Z,66.40
2019-02-18T20:21:40.696Z,66.50
2019-02-18T20:24:14.141Z,66.70
2019-02-18T20:26:47.946Z,66.80
2019-02-18T20:29:21.416Z,66.80
2019-02-18T20:31:54.858Z,66.80
2019-02-18T20:34:28.292Z,66.90
2019-02-18T20:37:02.395Z,67.00
2019-02-18T20:39:35.830Z,67.10
2019-02-18T20:42:09.275Z,67.10
2019-02-18T20:44:42.760Z,67.30
2019-02-18T20:47:16.208Z,67.20
2019-02-18T20:49:49.773Z,67.30
2019-02-18T20:52:23.270Z,67.10
2019-02-18T20:54:56.730Z,67.40
2019-02-18T20:57:30.187Z,67.40
2019-02-18T21:00:06.019Z,67.40
2019-02-18T21:02:39.439Z,67.50
2019-02-18T21:05:12.882Z,67.20
2019-02-18T21:07:46.377Z,67.50
2019-02-18T21:10:21.321Z,67.50
2019-02-18T21:12:54.748Z,67.50
2019-02-18T21:15:28.267Z,67.50
2019-02-18T21:18:01.755Z,67.50
2019-02-18T21:20:35.798Z,67.60
2019-02-18T21:23:09.305Z,67.80
2019-02-18T21:25:42.825Z,67.60
2019-02-18T21:28:16.254Z,68.50
2019-02-18T21:30:49.717Z,68.10
2019-02-18T21:33:23.216Z,68.00
2019-02-18T21:35:56.867Z,68.10
2019-02-18T21:38:30.287Z,68.20
2019-02-18T21:41:03.752Z,68.30
2019-02-18T21:43:37.172Z,68.30
2019-02-18T21:46:10.619Z,68.50
2019-02-18T21:48:44.043Z,68.50
2019-02-18T21:51:17.491Z,68.50
2019-02-18T21:53:51.296Z,68.50
2019-02-18T21:56:24.752Z,68.40
2019-02-18T21:58:58.172Z,68.50
2019-02-18T22:01:31.691Z,68.90
2019-02-18T22:04:05.180Z,68.90
2019-02-18T22:06:38.623Z,68.70
2019-02-18T22:09:12.049Z,68.70
2019-02-18T22:11:45.507Z,68.90
2019-02-18T22:14:18.998Z,69.10
2019-02-18T22:16:52.812Z,69.00
2019-02-18T22:19:26.250Z,69.10
2019-02-18T22:21:59.696Z,69.00
2019-02-18T22:24:33.198Z,69.00
2019-02-18T22:27:06.744Z,69.10
2019-02-18T22:29:40.165Z,69.00
2019-02-18T22:32:13.621Z,69.20
2019-02-18T22:34:47.039Z,69.40
2019-02-18T22:37:20.486Z,69.30
2019-02-18T22:39:54.283Z,69.50
2019-02-18T22:42:27.724Z,69.50
2019-02-18T22:45:01.166Z,69.60
2019-02-18T22:47:34.608Z,69.60
2019-02-18T22:50:10.491Z,69.30
2019-02-18T22:52:43.920Z,69.30
2019-02-18T22:55:17.339Z,69.20
2019-02-18T22:57:50.775Z,69.40
2019-02-18T23:00:28.922Z,69.30
2019-02-18T23:03:02.896Z,69.30
2019-02-18T23:05:36.318Z,69.50
2019-02-18T23:08:09.753Z,69.40
2019-02-18T23:10:43.181Z,70.00
2019-02-18T23:13:16.615Z,69.60
2019-02-18T23:15:50.056Z,69.60
2019-02-18T23:18:23.561Z,69.50
2019-02-18T23:20:56.993Z,69.50
2019-02-18T23:23:30.424Z,69.60
2019-02-18T23:26:04.337Z,69.80
2019-02-18T23:28:37.768Z,69.70
2019-02-18T23:31:11.197Z,69.60
2019-02-18T23:33:44.641Z,69.60
2019-02-18T23:36:18.061Z,69.40
2019-02-18T23:38:51.510Z,69.30
2019-02-18T23:41:26.048Z,69.60
2019-02-18T23:43:59.493Z,69.70
2019-02-18T23:46:32.930Z,69.70
2019-02-18T23:49:06.565Z,69.60
2019-02-18T23:51:40.003Z,69.90
2019-02-18T23:54:13.437Z,69.90
2019-02-18T23:56:46.860Z,69.70
2019-02-18T23:59:20.379Z,69.70
